Boxborough, Massachusetts
Current Conditions -  °F | °C
As of 12:56 AM on Sunday 26 Oct 2014 (Local Time) from KBED Reporting Station
Overcast Overcast  
Wind Chill: 54°   Ceiling: 12000
Heat Index: 54°   Visibility: 10mi
Dew Point: 45°   Wind: 6mph
Humidity: 72%   Direction: 230°SW
Pressure: 29.47"   Gusts: NA
Location:  42.48°N, 71.52°W
Report Text: KBED 260456Z 23005KT 10SM FEW055 OVC120 12/07 A2947 RMK AO2 SLP993 T01220072 401830044
Loading
Personal Weather Stations






























Interactive Weather Map
Tropical Storm Tracking
New forecast layout! Learn more

10-Day Weather Forecast

Advertisements
Track Severe Weather on mobile